Aviation Digital Data Service (ADDS)

Output produced by TAFs form (2117 UTC 01 April 2015)
found at http://aviationweather.gov/adds/tafs/
 
KMAF 011720Z 0118/0218 24011G21KT P6SM SCT080 
     FM020100 22010KT P6SM SKC 
     FM021300 24011KT P6SM SKC 
     FM021700 25016G26KT P6SM SKC